sensor_id;sensor_type;location;lat;lon;timestamp;P1;durP1;ratioP1;P2;durP2;ratioP2
2107;SDS011;1060;52.492;13.388;2023-02-01T00:01:46;25.52;;;6.45;;
2107;SDS011;1060;52.492;13.388;2023-02-01T00:04:12;20.33;;;5.15;;
2107;SDS011;1060;52.492;13.388;2023-02-01T00:06:38;14.27;;;5.68;;
2107;SDS011;1060;52.492;13.388;2023-02-01T00:09:04;20.65;;;6.72;;
2107;SDS011;1060;52.492;13.388;2023-02-01T00:11:31;16.03;;;5.57;;
2107;SDS011;1060;52.492;13.388;2023-02-01T00:13:57;18.73;;;6.53;;
2107;SDS011;1060;52.492;13.388;2023-02-01T00:16:24;21.83;;;7.10;;
2107;SDS011;1060;52.492;13.388;2023-02-01T00:18:51;10.65;;;4.03;;
2107;SDS011;1060;52.492;13.388;2023-02-01T00:21:19;13.70;;;4.25;;
2107;SDS011;1060;52.492;13.388;2023-02-01T00:23:45;13.68;;;5.60;;
2107;SDS011;1060;52.492;13.388;2023-02-01T00:26:46;13.63;;;4.18;;
2107;SDS011;1060;52.492;13.388;2023-02-01T00:29:05;13.33;;;4.27;;
2107;SDS011;1060;52.492;13.388;2023-02-01T00:31:32;16.55;;;5.25;;
2107;SDS011;1060;52.492;13.388;2023-02-01T00:33:58;12.18;;;4.13;;
2107;SDS011;1060;52.492;13.388;2023-02-01T00:36:24;11.07;;;4.90;;
2107;SDS011;1060;52.492;13.388;2023-02-01T00:38:50;7.57;;;4.13;;
2107;SDS011;1060;52.492;13.388;2023-02-01T00:41:18;11.38;;;4.50;;
2107;SDS011;1060;52.492;13.388;2023-02-01T00:43:44;11.87;;;6.00;;
2107;SDS011;1060;52.492;13.388;2023-02-01T00:46:11;9.82;;;4.03;;
2107;SDS011;1060;52.492;13.388;2023-02-01T00:48:38;13.50;;;4.75;;
2107;SDS011;1060;52.492;13.388;2023-02-01T00:51:05;16.58;;;5.82;;
2107;SDS011;1060;52.492;13.388;2023-02-01T00:53:32;19.77;;;5.18;;
2107;SDS011;1060;52.492;13.388;2023-02-01T00:55:59;14.43;;;4.65;;
2107;SDS011;1060;52.492;13.388;2023-02-01T00:58:25;12.50;;;5.27;;
2107;SDS011;1060;52.492;13.388;2023-02-01T01:01:04;11.95;;;3.58;;
2107;SDS011;1060;52.492;13.388;2023-02-01T01:03:31;14.30;;;3.80;;
2107;SDS011;1060;52.492;13.388;2023-02-01T01:05:58;12.38;;;4.47;;
2107;SDS011;1060;52.492;13.388;2023-02-01T01:08:25;12.95;;;5.22;;
2107;SDS011;1060;52.492;13.388;2023-02-01T01:10:52;13.27;;;3.80;;
2107;SDS011;1060;52.492;13.388;2023-02-01T01:13:18;18.95;;;5.68;;
2107;SDS011;1060;52.492;13.388;2023-02-01T01:15:44;17.20;;;6.25;;
2107;SDS011;1060;52.492;13.388;2023-02-01T01:18:10;8.57;;;3.75;;
2107;SDS011;1060;52.492;13.388;2023-02-01T01:20:38;9.75;;;4.72;;
2107;SDS011;1060;52.492;13.388;2023-02-01T01:23:05;10.63;;;4.28;;
2107;SDS011;1060;52.492;13.388;2023-02-01T01:25:31;9.10;;;4.78;;
2107;SDS011;1060;52.492;13.388;2023-02-01T01:27:57;16.02;;;5.55;;
2107;SDS011;1060;52.492;13.388;2023-02-01T01:30:24;16.40;;;4.28;;
2107;SDS011;1060;52.492;13.388;2023-02-01T01:32:51;16.25;;;4.75;;
2107;SDS011;1060;52.492;13.388;2023-02-01T01:35:17;9.13;;;4.35;;
2107;SDS011;1060;52.492;13.388;2023-02-01T01:37:44;12.00;;;4.90;;
2107;SDS011;1060;52.492;13.388;2023-02-01T01:40:10;15.05;;;7.00;;
2107;SDS011;1060;52.492;13.388;2023-02-01T01:42:37;26.45;;;5.40;;
2107;SDS011;1060;52.492;13.388;2023-02-01T01:45:05;15.55;;;3.75;;
2107;SDS011;1060;52.492;13.388;2023-02-01T01:47:34;16.08;;;5.30;;
2107;SDS011;1060;52.492;13.388;2023-02-01T01:50:01;8.85;;;4.07;;
2107;SDS011;1060;52.492;13.388;2023-02-01T01:52:29;18.25;;;4.15;;
2107;SDS011;1060;52.492;13.388;2023-02-01T01:54:55;15.32;;;5.40;;
2107;SDS011;1060;52.492;13.388;2023-02-01T01:57:24;16.10;;;6.03;;
2107;SDS011;1060;52.492;13.388;2023-02-01T02:00:14;11.82;;;3.63;;
2107;SDS011;1060;52.492;13.388;2023-02-01T02:02:44;10.93;;;4.63;;
2107;SDS011;1060;52.492;13.388;2023-02-01T02:05:13;21.50;;;4.22;;
2107;SDS011;1060;52.492;13.388;2023-02-01T02:07:40;18.55;;;4.93;;
2107;SDS011;1060;52.492;13.388;2023-02-01T02:10:09;17.52;;;4.78;;
2107;SDS011;1060;52.492;13.388;2023-02-01T02:12:39;17.20;;;4.10;;
2107;SDS011;1060;52.492;13.388;2023-02-01T02:15:06;12.90;;;5.05;;
2107;SDS011;1060;52.492;13.388;2023-02-01T02:25:45;11.20;;;4.35;;
2107;SDS011;1060;52.492;13.388;2023-02-01T02:36:52;22.20;;;5.67;;
2107;SDS011;1060;52.492;13.388;2023-02-01T02:38:58;18.13;;;5.82;;
2107;SDS011;1060;52.492;13.388;2023-02-01T02:44:42;11.98;;;3.55;;
2107;SDS011;1060;52.492;13.388;2023-02-01T02:47:45;13.07;;;3.50;;
2107;SDS011;1060;52.492;13.388;2023-02-01T02:53:02;19.30;;;5.15;;
2107;SDS011;1060;52.492;13.388;2023-02-01T02:55:49;11.02;;;3.28;;
2107;SDS011;1060;52.492;13.388;2023-02-01T02:58:17;12.60;;;4.70;;
2107;SDS011;1060;52.492;13.388;2023-02-01T03:01:02;14.48;;;4.50;;
2107;SDS011;1060;52.492;13.388;2023-02-01T03:03:48;9.82;;;4.85;;
2107;SDS011;1060;52.492;13.388;2023-02-01T03:06:34;14.88;;;4.13;;
2107;SDS011;1060;52.492;13.388;2023-02-01T03:09:01;9.65;;;3.85;;
2107;SDS011;1060;52.492;13.388;2023-02-01T03:11:29;19.13;;;5.75;;
2107;SDS011;1060;52.492;13.388;2023-02-01T03:14:16;11.35;;;3.75;;
2107;SDS011;1060;52.492;13.388;2023-02-01T03:16:49;12.82;;;5.32;;
2107;SDS011;1060;52.492;13.388;2023-02-01T03:19:19;14.97;;;5.47;;
2107;SDS011;1060;52.492;13.388;2023-02-01T03:24:23;15.45;;;4.43;;
2107;SDS011;1060;52.492;13.388;2023-02-01T03:27:02;25.50;;;8.25;;
2107;SDS011;1060;52.492;13.388;2023-02-01T03:29:31;12.52;;;5.40;;
2107;SDS011;1060;52.492;13.388;2023-02-01T03:31:59;17.20;;;5.30;;
2107;SDS011;1060;52.492;13.388;2023-02-01T03:34:25;33.25;;;5.60;;
2107;SDS011;1060;52.492;13.388;2023-02-01T03:36:53;19.20;;;5.30;;
2107;SDS011;1060;52.492;13.388;2023-02-01T03:39:25;10.53;;;3.80;;
2107;SDS011;1060;52.492;13.388;2023-02-01T03:42:04;10.77;;;5.30;;
2107;SDS011;1060;52.492;13.388;2023-02-01T03:44:35;20.77;;;5.35;;
2107;SDS011;1060;52.492;13.388;2023-02-01T03:47:14;15.07;;;5.63;;
2107;SDS011;1060;52.492;13.388;2023-02-01T03:52:13;22.08;;;5.00;;
2107;SDS011;1060;52.492;13.388;2023-02-01T03:54:41;10.60;;;4.07;;
2107;SDS011;1060;52.492;13.388;2023-02-01T03:57:09;18.75;;;5.97;;
2107;SDS011;1060;52.492;13.388;2023-02-01T03:59:41;21.60;;;4.97;;
2107;SDS011;1060;52.492;13.388;2023-02-01T04:02:08;13.32;;;3.67;;
2107;SDS011;1060;52.492;13.388;2023-02-01T04:04:34;22.80;;;6.95;;
2107;SDS011;1060;52.492;13.388;2023-02-01T04:07:00;9.32;;;3.38;;
2107;SDS011;1060;52.492;13.388;2023-02-01T04:09:27;10.98;;;5.47;;
2107;SDS011;1060;52.492;13.388;2023-02-01T04:11:53;11.15;;;4.30;;
2107;SDS011;1060;52.492;13.388;2023-02-01T04:14:19;21.30;;;4.78;;
2107;SDS011;1060;52.492;13.388;2023-02-01T04:16:45;14.10;;;4.27;;
2107;SDS011;1060;52.492;13.388;2023-02-01T04:19:11;16.08;;;5.25;;
2107;SDS011;1060;52.492;13.388;2023-02-01T04:21:38;21.63;;;6.37;;
2107;SDS011;1060;52.492;13.388;2023-02-01T04:24:04;11.27;;;4.03;;
2107;SDS011;1060;52.492;13.388;2023-02-01T04:26:30;23.30;;;5.03;;
2107;SDS011;1060;52.492;13.388;2023-02-01T04:28:56;9.73;;;4.60;;
2107;SDS011;1060;52.492;13.388;2023-02-01T04:31:23;11.17;;;3.93;;
2107;SDS011;1060;52.492;13.388;2023-02-01T04:33:53;8.93;;;3.70;;
2107;SDS011;1060;52.492;13.388;2023-02-01T04:36:19;16.93;;;5.23;;
2107;SDS011;1060;52.492;13.388;2023-02-01T04:38:49;12.80;;;6.30;;
2107;SDS011;1060;52.492;13.388;2023-02-01T04:41:15;12.40;;;3.70;;
2107;SDS011;1060;52.492;13.388;2023-02-01T04:43:48;10.60;;;4.63;;
2107;SDS011;1060;52.492;13.388;2023-02-01T04:46:14;10.57;;;3.63;;
2107;SDS011;1060;52.492;13.388;2023-02-01T04:48:41;20.07;;;4.30;;
2107;SDS011;1060;52.492;13.388;2023-02-01T04:51:07;15.23;;;5.63;;
2107;SDS011;1060;52.492;13.388;2023-02-01T04:53:33;14.40;;;4.18;;
2107;SDS011;1060;52.492;13.388;2023-02-01T04:55:59;10.30;;;3.92;;
2107;SDS011;1060;52.492;13.388;2023-02-01T04:58:26;17.70;;;5.70;;
2107;SDS011;1060;52.492;13.388;2023-02-01T05:00:52;12.70;;;4.75;;
2107;SDS011;1060;52.492;13.388;2023-02-01T05:03:18;14.23;;;4.70;;
2107;SDS011;1060;52.492;13.388;2023-02-01T05:05:44;13.02;;;4.13;;
2107;SDS011;1060;52.492;13.388;2023-02-01T05:08:10;12.85;;;4.60;;
2107;SDS011;1060;52.492;13.388;2023-02-01T05:10:36;13.50;;;4.70;;
2107;SDS011;1060;52.492;13.388;2023-02-01T05:13:02;16.00;;;5.78;;
2107;SDS011;1060;52.492;13.388;2023-02-01T05:15:47;17.33;;;5.45;;
2107;SDS011;1060;52.492;13.388;2023-02-01T05:18:13;17.83;;;4.70;;
2107;SDS011;1060;52.492;13.388;2023-02-01T05:20:39;16.77;;;5.93;;
2107;SDS011;1060;52.492;13.388;2023-02-01T05:23:06;9.60;;;4.77;;
2107;SDS011;1060;52.492;13.388;2023-02-01T05:25:32;14.60;;;3.40;;
2107;SDS011;1060;52.492;13.388;2023-02-01T05:27:58;10.55;;;4.32;;
2107;SDS011;1060;52.492;13.388;2023-02-01T05:30:24;12.73;;;5.22;;
2107;SDS011;1060;52.492;13.388;2023-02-01T05:32:51;13.63;;;4.73;;
2107;SDS011;1060;52.492;13.388;2023-02-01T05:38:08;11.93;;;5.20;;
2107;SDS011;1060;52.492;13.388;2023-02-01T05:40:34;14.80;;;4.00;;
2107;SDS011;1060;52.492;13.388;2023-02-01T05:43:00;12.00;;;4.97;;
2107;SDS011;1060;52.492;13.388;2023-02-01T05:45:27;19.33;;;5.87;;
2107;SDS011;1060;52.492;13.388;2023-02-01T05:47:53;19.73;;;5.50;;
2107;SDS011;1060;52.492;13.388;2023-02-01T05:50:19;20.30;;;5.50;;
2107;SDS011;1060;52.492;13.388;2023-02-01T05:52:45;17.10;;;6.40;;
2107;SDS011;1060;52.492;13.388;2023-02-01T05:55:11;8.05;;;4.75;;
2107;SDS011;1060;52.492;13.388;2023-02-01T05:57:37;13.95;;;5.47;;
2107;SDS011;1060;52.492;13.388;2023-02-01T06:00:07;20.20;;;7.53;;
2107;SDS011;1060;52.492;13.388;2023-02-01T06:02:37;20.70;;;5.67;;
2107;SDS011;1060;52.492;13.388;2023-02-01T06:05:04;13.63;;;4.30;;
2107;SDS011;1060;52.492;13.388;2023-02-01T06:07:30;16.13;;;6.20;;
2107;SDS011;1060;52.492;13.388;2023-02-01T06:09:57;10.05;;;4.65;;
2107;SDS011;1060;52.492;13.388;2023-02-01T06:12:26;14.10;;;5.35;;
2107;SDS011;1060;52.492;13.388;2023-02-01T06:14:53;21.33;;;6.20;;
2107;SDS011;1060;52.492;13.388;2023-02-01T06:17:23;15.25;;;6.45;;
2107;SDS011;1060;52.492;13.388;2023-02-01T06:19:49;12.67;;;4.23;;
2107;SDS011;1060;52.492;13.388;2023-02-01T06:22:19;14.00;;;4.93;;
2107;SDS011;1060;52.492;13.388;2023-02-01T06:24:47;12.00;;;4.43;;
2107;SDS011;1060;52.492;13.388;2023-02-01T06:27:14;15.10;;;5.67;;
2107;SDS011;1060;52.492;13.388;2023-02-01T06:29:40;10.30;;;5.65;;
2107;SDS011;1060;52.492;13.388;2023-02-01T06:32:06;21.83;;;7.87;;
2107;SDS011;1060;52.492;13.388;2023-02-01T06:34:33;12.23;;;5.73;;
2107;SDS011;1060;52.492;13.388;2023-02-01T06:37:00;19.83;;;6.55;;
2107;SDS011;1060;52.492;13.388;2023-02-01T06:39:26;13.23;;;5.85;;
2107;SDS011;1060;52.492;13.388;2023-02-01T06:41:53;15.53;;;6.13;;
2107;SDS011;1060;52.492;13.388;2023-02-01T06:44:19;10.13;;;5.30;;
2107;SDS011;1060;52.492;13.388;2023-02-01T06:46:46;16.10;;;4.75;;
2107;SDS011;1060;52.492;13.388;2023-02-01T06:49:15;25.80;;;10.60;;
2107;SDS011;1060;52.492;13.388;2023-02-01T06:51:44;12.03;;;5.47;;
2107;SDS011;1060;52.492;13.388;2023-02-01T06:54:13;15.73;;;5.97;;
2107;SDS011;1060;52.492;13.388;2023-02-01T06:56:40;11.17;;;5.13;;
2107;SDS011;1060;52.492;13.388;2023-02-01T06:59:06;11.13;;;5.43;;
2107;SDS011;1060;52.492;13.388;2023-02-01T07:01:37;28.90;;;6.97;;
2107;SDS011;1060;52.492;13.388;2023-02-01T07:04:04;14.43;;;4.95;;
2107;SDS011;1060;52.492;13.388;2023-02-01T07:06:33;18.37;;;6.60;;
2107;SDS011;1060;52.492;13.388;2023-02-01T07:09:02;23.20;;;5.57;;
2107;SDS011;1060;52.492;13.388;2023-02-01T07:11:28;14.00;;;4.97;;
2107;SDS011;1060;52.492;13.388;2023-02-01T07:13:55;14.07;;;4.63;;
2107;SDS011;1060;52.492;13.388;2023-02-01T07:16:31;10.70;;;3.73;;
2107;SDS011;1060;52.492;13.388;2023-02-01T07:18:57;13.13;;;6.40;;
2107;SDS011;1060;52.492;13.388;2023-02-01T07:21:24;8.98;;;5.38;;
2107;SDS011;1060;52.492;13.388;2023-02-01T07:23:53;12.87;;;5.17;;
2107;SDS011;1060;52.492;13.388;2023-02-01T07:28:56;10.70;;;5.07;;
2107;SDS011;1060;52.492;13.388;2023-02-01T07:31:22;15.40;;;6.17;;
2107;SDS011;1060;52.492;13.388;2023-02-01T07:33:54;7.23;;;4.70;;
2107;SDS011;1060;52.492;13.388;2023-02-01T07:36:21;11.80;;;4.77;;
2107;SDS011;1060;52.492;13.388;2023-02-01T07:38:51;11.07;;;7.25;;
2107;SDS011;1060;52.492;13.388;2023-02-01T07:41:19;12.47;;;5.83;;
2107;SDS011;1060;52.492;13.388;2023-02-01T07:43:45;10.73;;;4.97;;
2107;SDS011;1060;52.492;13.388;2023-02-01T07:46:21;17.10;;;7.13;;
2107;SDS011;1060;52.492;13.388;2023-02-01T07:48:50;21.10;;;6.30;;
2107;SDS011;1060;52.492;13.388;2023-02-01T07:51:16;15.57;;;4.93;;
2107;SDS011;1060;52.492;13.388;2023-02-01T07:53:43;14.27;;;6.20;;
2107;SDS011;1060;52.492;13.388;2023-02-01T07:56:16;14.13;;;5.82;;
2107;SDS011;1060;52.492;13.388;2023-02-01T07:58:43;18.30;;;6.37;;
2107;SDS011;1060;52.492;13.388;2023-02-01T08:01:16;11.43;;;5.30;;
2107;SDS011;1060;52.492;13.388;2023-02-01T08:03:47;17.03;;;8.20;;
2107;SDS011;1060;52.492;13.388;2023-02-01T08:06:13;10.97;;;5.37;;
2107;SDS011;1060;52.492;13.388;2023-02-01T08:08:40;11.70;;;5.40;;
2107;SDS011;1060;52.492;13.388;2023-02-01T08:11:06;23.20;;;7.53;;
2107;SDS011;1060;52.492;13.388;2023-02-01T08:13:33;11.00;;;5.57;;
2107;SDS011;1060;52.492;13.388;2023-02-01T08:16:00;10.93;;;4.87;;
2107;SDS011;1060;52.492;13.388;2023-02-01T08:18:27;9.23;;;5.60;;
2107;SDS011;1060;52.492;13.388;2023-02-01T08:21:02;20.00;;;6.95;;
2107;SDS011;1060;52.492;13.388;2023-02-01T08:23:28;10.63;;;6.10;;
2107;SDS011;1060;52.492;13.388;2023-02-01T08:26:11;11.95;;;5.30;;
2107;SDS011;1060;52.492;13.388;2023-02-01T08:28:39;14.77;;;7.70;;
2107;SDS011;1060;52.492;13.388;2023-02-01T08:31:06;11.90;;;6.07;;
2107;SDS011;1060;52.492;13.388;2023-02-01T08:33:34;13.77;;;6.07;;
2107;SDS011;1060;52.492;13.388;2023-02-01T08:36:05;17.88;;;7.85;;
2107;SDS011;1060;52.492;13.388;2023-02-01T08:38:31;30.45;;;12.80;;
2107;SDS011;1060;52.492;13.388;2023-02-01T08:41:02;13.50;;;6.35;;
2107;SDS011;1060;52.492;13.388;2023-02-01T08:43:29;12.05;;;6.03;;
2107;SDS011;1060;52.492;13.388;2023-02-01T08:45:55;15.32;;;8.18;;
2107;SDS011;1060;52.492;13.388;2023-02-01T08:48:22;18.27;;;6.75;;
2107;SDS011;1060;52.492;13.388;2023-02-01T08:50:48;14.68;;;6.35;;
2107;SDS011;1060;52.492;13.388;2023-02-01T08:53:15;28.98;;;8.02;;
2107;SDS011;1060;52.492;13.388;2023-02-01T08:55:44;20.60;;;7.17;;
2107;SDS011;1060;52.492;13.388;2023-02-01T08:58:11;13.02;;;5.68;;
2107;SDS011;1060;52.492;13.388;2023-02-01T09:00:39;27.65;;;8.82;;
2107;SDS011;1060;52.492;13.388;2023-02-01T09:03:05;13.27;;;6.88;;
2107;SDS011;1060;52.492;13.388;2023-02-01T09:05:34;10.90;;;5.70;;
2107;SDS011;1060;52.492;13.388;2023-02-01T09:08:00;16.77;;;6.40;;
2107;SDS011;1060;52.492;13.388;2023-02-01T09:12:53;9.83;;;5.10;;
2107;SDS011;1060;52.492;13.388;2023-02-01T09:15:20;4.30;;;3.97;;
2107;SDS011;1060;52.492;13.388;2023-02-01T09:17:47;11.07;;;3.97;;
2107;SDS011;1060;52.492;13.388;2023-02-01T09:20:17;6.40;;;4.53;;
2107;SDS011;1060;52.492;13.388;2023-02-01T09:22:45;9.07;;;4.80;;
2107;SDS011;1060;52.492;13.388;2023-02-01T09:25:11;4.63;;;3.77;;
2107;SDS011;1060;52.492;13.388;2023-02-01T09:27:38;6.73;;;3.20;;
2107;SDS011;1060;52.492;13.388;2023-02-01T09:30:04;6.63;;;6.10;;
2107;SDS011;1060;52.492;13.388;2023-02-01T09:32:35;4.18;;;2.85;;
2107;SDS011;1060;52.492;13.388;2023-02-01T09:35:04;5.60;;;3.23;;
2107;SDS011;1060;52.492;13.388;2023-02-01T09:37:34;4.43;;;2.90;;
2107;SDS011;1060;52.492;13.388;2023-02-01T09:40:03;12.87;;;4.83;;
2107;SDS011;1060;52.492;13.388;2023-02-01T09:45:14;3.58;;;2.38;;
2107;SDS011;1060;52.492;13.388;2023-02-01T09:47:54;3.40;;;1.58;;
2107;SDS011;1060;52.492;13.388;2023-02-01T09:50:31;11.03;;;4.17;;
2107;SDS011;1060;52.492;13.388;2023-02-01T09:55:45;7.90;;;6.00;;
2107;SDS011;1060;52.492;13.388;2023-02-01T10:00:50;9.27;;;3.50;;
2107;SDS011;1060;52.492;13.388;2023-02-01T10:03:24;2.60;;;2.33;;
2107;SDS011;1060;52.492;13.388;2023-02-01T10:11:15;2.50;;;1.53;;
2107;SDS011;1060;52.492;13.388;2023-02-01T10:13:59;5.68;;;1.80;;
2107;SDS011;1060;52.492;13.388;2023-02-01T10:16:41;4.07;;;2.85;;
2107;SDS011;1060;52.492;13.388;2023-02-01T10:19:37;2.90;;;2.65;;
2107;SDS011;1060;52.492;13.388;2023-02-01T10:22:20;3.87;;;2.10;;
2107;SDS011;1060;52.492;13.388;2023-02-01T10:24:53;10.47;;;3.40;;
2107;SDS011;1060;52.492;13.388;2023-02-01T10:27:29;4.43;;;2.10;;
2107;SDS011;1060;52.492;13.388;2023-02-01T10:29:59;12.93;;;3.80;;
2107;SDS011;1060;52.492;13.388;2023-02-01T10:32:34;4.70;;;2.92;;
2107;SDS011;1060;52.492;13.388;2023-02-01T10:35:01;4.70;;;2.50;;
2107;SDS011;1060;52.492;13.388;2023-02-01T10:37:31;15.93;;;4.37;;
2107;SDS011;1060;52.492;13.388;2023-02-01T10:40:13;10.55;;;4.18;;
2107;SDS011;1060;52.492;13.388;2023-02-01T10:42:41;5.13;;;3.20;;
2107;SDS011;1060;52.492;13.388;2023-02-01T10:45:14;10.10;;;3.33;;
2107;SDS011;1060;52.492;13.388;2023-02-01T10:47:49;6.83;;;3.13;;
2107;SDS011;1060;52.492;13.388;2023-02-01T10:50:38;6.63;;;3.27;;
2107;SDS011;1060;52.492;13.388;2023-02-01T10:53:31;12.17;;;2.70;;
2107;SDS011;1060;52.492;13.388;2023-02-01T10:56:04;3.97;;;2.33;;
2107;SDS011;1060;52.492;13.388;2023-02-01T10:58:31;9.13;;;2.23;;
2107;SDS011;1060;52.492;13.388;2023-02-01T11:01:05;7.67;;;2.70;;
2107;SDS011;1060;52.492;13.388;2023-02-01T11:03:44;5.97;;;2.13;;
2107;SDS011;1060;52.492;13.388;2023-02-01T11:06:38;5.47;;;2.08;;
2107;SDS011;1060;52.492;13.388;2023-02-01T11:14:19;5.10;;;3.30;;
2107;SDS011;1060;52.492;13.388;2023-02-01T11:16:52;9.35;;;3.95;;
2107;SDS011;1060;52.492;13.388;2023-02-01T11:19:21;7.33;;;3.77;;
2107;SDS011;1060;52.492;13.388;2023-02-01T11:24:44;6.10;;;3.03;;
2107;SDS011;1060;52.492;13.388;2023-02-01T11:27:14;6.33;;;3.97;;
2107;SDS011;1060;52.492;13.388;2023-02-01T11:29:42;11.20;;;5.90;;
2107;SDS011;1060;52.492;13.388;2023-02-01T11:32:15;17.80;;;4.27;;
2107;SDS011;1060;52.492;13.388;2023-02-01T11:34:49;9.63;;;3.37;;
2107;SDS011;1060;52.492;13.388;2023-02-01T11:37:36;9.30;;;5.00;;
2107;SDS011;1060;52.492;13.388;2023-02-01T11:40:09;6.50;;;2.93;;
2107;SDS011;1060;52.492;13.388;2023-02-01T11:43:08;11.43;;;5.00;;
2107;SDS011;1060;52.492;13.388;2023-02-01T11:45:34;8.27;;;4.60;;
2107;SDS011;1060;52.492;13.388;2023-02-01T11:48:07;16.93;;;5.27;;
2107;SDS011;1060;52.492;13.388;2023-02-01T11:53:19;8.87;;;4.70;;
2107;SDS011;1060;52.492;13.388;2023-02-01T12:06:11;4.27;;;2.97;;
2107;SDS011;1060;52.492;13.388;2023-02-01T12:11:18;7.17;;;3.60;;
2107;SDS011;1060;52.492;13.388;2023-02-01T12:13:51;7.13;;;3.80;;
2107;SDS011;1060;52.492;13.388;2023-02-01T12:19:22;8.73;;;3.17;;
2107;SDS011;1060;52.492;13.388;2023-02-01T12:22:05;7.07;;;3.10;;
2107;SDS011;1060;52.492;13.388;2023-02-01T12:24:49;18.87;;;4.30;;
2107;SDS011;1060;52.492;13.388;2023-02-01T12:27:42;13.13;;;5.63;;
2107;SDS011;1060;52.492;13.388;2023-02-01T12:38:20;8.63;;;4.47;;
2107;SDS011;1060;52.492;13.388;2023-02-01T12:40:57;4.47;;;3.47;;
2107;SDS011;1060;52.492;13.388;2023-02-01T12:43:36;14.20;;;5.17;;
2107;SDS011;1060;52.492;13.388;2023-02-01T12:46:09;11.53;;;4.40;;
2107;SDS011;1060;52.492;13.388;2023-02-01T12:51:13;5.23;;;3.03;;
2107;SDS011;1060;52.492;13.388;2023-02-01T12:53:50;8.97;;;3.33;;
2107;SDS011;1060;52.492;13.388;2023-02-01T12:58:57;12.60;;;3.97;;
2107;SDS011;1060;52.492;13.388;2023-02-01T13:01:37;11.67;;;5.47;;
2107;SDS011;1060;52.492;13.388;2023-02-01T13:04:42;7.90;;;3.80;;
2107;SDS011;1060;52.492;13.388;2023-02-01T13:07:00;10.77;;;5.30;;
2107;SDS011;1060;52.492;13.388;2023-02-01T13:09:31;3.67;;;2.73;;
2107;SDS011;1060;52.492;13.388;2023-02-01T13:12:22;14.67;;;5.60;;
2107;SDS011;1060;52.492;13.388;2023-02-01T13:14:58;9.23;;;3.27;;
2107;SDS011;1060;52.492;13.388;2023-02-01T13:17:27;8.20;;;4.50;;
2107;SDS011;1060;52.492;13.388;2023-02-01T13:19:55;6.30;;;3.57;;
2107;SDS011;1060;52.492;13.388;2023-02-01T13:24:56;12.50;;;5.20;;
2107;SDS011;1060;52.492;13.388;2023-02-01T13:41:36;14.73;;;3.27;;
2107;SDS011;1060;52.492;13.388;2023-02-01T13:44:17;14.70;;;3.93;;
2107;SDS011;1060;52.492;13.388;2023-02-01T13:46:45;6.60;;;2.70;;
2107;SDS011;1060;52.492;13.388;2023-02-01T13:52:34;11.97;;;4.00;;
2107;SDS011;1060;52.492;13.388;2023-02-01T13:55:45;5.10;;;3.30;;
2107;SDS011;1060;52.492;13.388;2023-02-01T13:58:03;7.30;;;2.70;;
2107;SDS011;1060;52.492;13.388;2023-02-01T14:00:31;8.43;;;3.20;;
2107;SDS011;1060;52.492;13.388;2023-02-01T14:05:57;8.10;;;4.37;;
2107;SDS011;1060;52.492;13.388;2023-02-01T14:31:37;14.00;;;5.83;;
2107;SDS011;1060;52.492;13.388;2023-02-01T14:34:02;10.17;;;6.00;;
2107;SDS011;1060;52.492;13.388;2023-02-01T14:36:44;12.30;;;5.50;;
2107;SDS011;1060;52.492;13.388;2023-02-01T14:42:54;9.40;;;5.37;;
2107;SDS011;1060;52.492;13.388;2023-02-01T14:50:33;7.53;;;5.87;;
2107;SDS011;1060;52.492;13.388;2023-02-01T14:55:39;7.80;;;3.87;;
2107;SDS011;1060;52.492;13.388;2023-02-01T14:58:09;9.97;;;3.73;;
2107;SDS011;1060;52.492;13.388;2023-02-01T15:00:56;8.53;;;3.20;;
2107;SDS011;1060;52.492;13.388;2023-02-01T15:05:58;15.97;;;6.17;;
2107;SDS011;1060;52.492;13.388;2023-02-01T15:08:32;10.83;;;4.70;;
2107;SDS011;1060;52.492;13.388;2023-02-01T15:10:59;4.20;;;3.57;;
2107;SDS011;1060;52.492;13.388;2023-02-01T15:13:27;4.47;;;2.30;;
2107;SDS011;1060;52.492;13.388;2023-02-01T15:16:14;4.40;;;2.97;;
2107;SDS011;1060;52.492;13.388;2023-02-01T15:18:40;5.73;;;3.03;;
2107;SDS011;1060;52.492;13.388;2023-02-01T15:21:14;5.83;;;2.53;;
2107;SDS011;1060;52.492;13.388;2023-02-01T15:23:41;4.60;;;3.27;;
2107;SDS011;1060;52.492;13.388;2023-02-01T15:26:07;7.10;;;4.47;;
2107;SDS011;1060;52.492;13.388;2023-02-01T15:28:33;9.33;;;4.43;;
2107;SDS011;1060;52.492;13.388;2023-02-01T15:31:00;8.40;;;2.87;;
2107;SDS011;1060;52.492;13.388;2023-02-01T15:33:28;4.53;;;2.33;;
2107;SDS011;1060;52.492;13.388;2023-02-01T15:47:25;7.95;;;2.38;;
2107;SDS011;1060;52.492;13.388;2023-02-01T15:49:52;3.97;;;2.37;;
2107;SDS011;1060;52.492;13.388;2023-02-01T15:52:37;3.10;;;2.88;;
2107;SDS011;1060;52.492;13.388;2023-02-01T15:55:50;4.53;;;2.90;;
2107;SDS011;1060;52.492;13.388;2023-02-01T15:57:54;10.10;;;3.63;;
2107;SDS011;1060;52.492;13.388;2023-02-01T16:00:28;2.03;;;1.83;;
2107;SDS011;1060;52.492;13.388;2023-02-01T16:06:10;3.45;;;1.92;;
2107;SDS011;1060;52.492;13.388;2023-02-01T16:08:37;4.20;;;2.50;;
2107;SDS011;1060;52.492;13.388;2023-02-01T16:26:16;2.33;;;1.00;;
2107;SDS011;1060;52.492;13.388;2023-02-01T16:29:05;2.28;;;2.17;;
2107;SDS011;1060;52.492;13.388;2023-02-01T16:31:35;2.63;;;1.77;;
2107;SDS011;1060;52.492;13.388;2023-02-01T16:34:13;3.85;;;2.20;;
2107;SDS011;1060;52.492;13.388;2023-02-01T16:40:20;1.70;;;1.60;;
2107;SDS011;1060;52.492;13.388;2023-02-01T16:42:47;4.93;;;4.28;;
2107;SDS011;1060;52.492;13.388;2023-02-01T16:45:18;4.63;;;1.67;;
2107;SDS011;1060;52.492;13.388;2023-02-01T16:47:46;1.30;;;1.17;;
2107;SDS011;1060;52.492;13.388;2023-02-01T16:50:24;2.88;;;1.45;;
2107;SDS011;1060;52.492;13.388;2023-02-01T16:52:50;1.27;;;1.10;;
2107;SDS011;1060;52.492;13.388;2023-02-01T16:55:18;4.10;;;2.08;;
2107;SDS011;1060;52.492;13.388;2023-02-01T16:57:46;2.47;;;1.20;;
2107;SDS011;1060;52.492;13.388;2023-02-01T17:00:12;1.50;;;1.23;;
2107;SDS011;1060;52.492;13.388;2023-02-01T17:02:40;1.55;;;1.45;;
2107;SDS011;1060;52.492;13.388;2023-02-01T17:05:07;3.00;;;1.63;;
2107;SDS011;1060;52.492;13.388;2023-02-01T17:07:37;3.97;;;2.40;;
2107;SDS011;1060;52.492;13.388;2023-02-01T17:10:04;2.75;;;2.28;;
2107;SDS011;1060;52.492;13.388;2023-02-01T17:12:31;1.70;;;1.60;;
2107;SDS011;1060;52.492;13.388;2023-02-01T17:14:58;4.35;;;1.73;;
2107;SDS011;1060;52.492;13.388;2023-02-01T17:17:25;6.40;;;4.78;;
2107;SDS011;1060;52.492;13.388;2023-02-01T17:19:53;5.82;;;2.58;;
2107;SDS011;1060;52.492;13.388;2023-02-01T17:22:20;2.92;;;1.48;;
2107;SDS011;1060;52.492;13.388;2023-02-01T17:24:46;4.95;;;2.30;;
2107;SDS011;1060;52.492;13.388;2023-02-01T17:27:13;2.70;;;2.50;;
2107;SDS011;1060;52.492;13.388;2023-02-01T17:29:39;2.03;;;1.27;;
2107;SDS011;1060;52.492;13.388;2023-02-01T17:32:11;5.32;;;2.90;;
2107;SDS011;1060;52.492;13.388;2023-02-01T17:34:39;3.30;;;2.63;;
2107;SDS011;1060;52.492;13.388;2023-02-01T17:37:25;10.07;;;2.83;;
2107;SDS011;1060;52.492;13.388;2023-02-01T17:39:52;9.25;;;4.50;;
2107;SDS011;1060;52.492;13.388;2023-02-01T17:42:21;4.47;;;2.35;;
2107;SDS011;1060;52.492;13.388;2023-02-01T17:44:48;11.23;;;3.78;;
2107;SDS011;1060;52.492;13.388;2023-02-01T17:47:18;3.95;;;2.50;;
2107;SDS011;1060;52.492;13.388;2023-02-01T17:49:44;2.70;;;2.37;;
2107;SDS011;1060;52.492;13.388;2023-02-01T17:52:14;4.65;;;2.47;;
2107;SDS011;1060;52.492;13.388;2023-02-01T17:54:42;3.78;;;2.40;;
2107;SDS011;1060;52.492;13.388;2023-02-01T17:57:11;3.47;;;2.28;;
2107;SDS011;1060;52.492;13.388;2023-02-01T17:59:42;3.08;;;2.17;;
2107;SDS011;1060;52.492;13.388;2023-02-01T18:02:18;3.75;;;2.88;;
2107;SDS011;1060;52.492;13.388;2023-02-01T18:04:51;5.78;;;2.20;;
2107;SDS011;1060;52.492;13.388;2023-02-01T18:07:17;9.15;;;3.33;;
2107;SDS011;1060;52.492;13.388;2023-02-01T18:09:44;2.55;;;2.35;;
2107;SDS011;1060;52.492;13.388;2023-02-01T18:12:14;4.10;;;2.03;;
2107;SDS011;1060;52.492;13.388;2023-02-01T18:14:41;6.53;;;3.00;;